Time;durP1;ratioP1;P1;durP2;ratioP2;P2;SDS_P1;SDS_P2;PMS_P1;PMS_P2;Temp;Humidity;BMP_temperature;BMP_pressure;BME280_temperature;BME280_humidity;BME280_pressure;Samples;Min_cycle;Max_cycle;Signal;HPM_P1;HPM_P2
2022/01/04 17:50:15;;;;;;;39.63;15.80;;;;;;;;;;5081879;28;20392;-64
2022/01/04 17:52:41;;;;;;;27.50;13.32;;;;;;;;;;5077041;28;20023;-64
2022/01/04 17:55:08;;;;;;;33.17;12.18;;;;;;;;;;5077908;28;20032;-63
2022/01/04 17:57:34;;;;;;;28.70;11.57;;;;;;;;;;5071255;28;20506;-64
2022/01/04 18:00:00;;;;;;;22.90;9.30;;;;;;;;;;5071978;28;20029;-64
2022/01/04 18:02:28;;;;;;;82.30;36.70;;;;;;;;;;5079885;28;20016;-64
2022/01/04 18:04:54;;;;;;;31.35;13.93;;;;;;;;;;5074535;28;20016;-64
2022/01/04 18:07:20;;;;;;;20.92;8.95;;;;;;;;;;5076709;28;20064;-63
2022/01/04 18:09:47;;;;;;;18.35;6.38;;;;;;;;;;5072198;28;20059;-65
2022/01/04 18:12:13;;;;;;;23.67;7.35;;;;;;;;;;5074416;28;20078;-63
2022/01/04 18:14:39;;;;;;;23.13;8.73;;;;;;;;;;5074302;28;20434;-63
2022/01/04 18:17:05;;;;;;;20.30;8.48;;;;;;;;;;5081229;28;20032;-64
2022/01/04 18:19:31;;;;;;;21.75;7.97;;;;;;;;;;5075302;28;20055;-63
2022/01/04 18:21:57;;;;;;;27.30;9.70;;;;;;;;;;5077659;28;20024;-65
2022/01/04 18:24:23;;;;;;;35.17;12.75;;;;;;;;;;5074722;28;20036;-64
2022/01/04 18:26:50;;;;;;;23.50;10.63;;;;;;;;;;5073915;28;20127;-63
2022/01/04 18:29:16;;;;;;;16.13;7.90;;;;;;;;;;5074556;28;20300;-64
2022/01/04 18:31:42;;;;;;;37.22;14.70;;;;;;;;;;5054077;28;20036;-64
2022/01/04 18:34:08;;;;;;;43.92;16.25;;;;;;;;;;5057175;28;20035;-64
2022/01/04 18:36:34;;;;;;;35.33;13.77;;;;;;;;;;5053639;28;20452;-64
2022/01/04 18:39:00;;;;;;;28.60;10.25;;;;;;;;;;5058642;28;20387;-64
2022/01/04 18:41:26;;;;;;;16.25;7.50;;;;;;;;;;5054818;28;20051;-64
2022/01/04 18:43:52;;;;;;;23.10;8.93;;;;;;;;;;5057468;28;20094;-64
2022/01/04 18:46:21;;;;;;;19.67;5.50;;;;;;;;;;5047667;28;20048;-63
2022/01/04 18:48:47;;;;;;;19.55;6.00;;;;;;;;;;5045291;28;20046;-64
2022/01/04 18:51:13;;;;;;;22.08;7.43;;;;;;;;;;5056651;28;20086;-63
2022/01/04 18:53:39;;;;;;;19.58;6.93;;;;;;;;;;5071233;28;20020;-66
2022/01/04 18:56:06;;;;;;;20.08;7.05;;;;;;;;;;5070586;28;20048;-65
2022/01/04 18:58:32;;;;;;;23.17;8.50;;;;;;;;;;5063719;28;20051;-63
2022/01/04 19:00:58;;;;;;;39.65;12.88;;;;;;;;;;5049277;28;20033;-64
2022/01/04 19:03:24;;;;;;;42.47;13.05;;;;;;;;;;5040619;28;20029;-62
2022/01/04 19:05:50;;;;;;;36.97;11.88;;;;;;;;;;5047054;28;20033;-63
2022/01/04 19:08:16;;;;;;;34.47;10.63;;;;;;;;;;5044676;28;20548;-64
2022/01/04 19:10:42;;;;;;;38.50;16.15;;;;;;;;;;5043165;28;20055;-64
2022/01/04 19:13:08;;;;;;;26.73;9.45;;;;;;;;;;5040908;28;20032;-64
2022/01/04 19:15:34;;;;;;;22.95;6.35;;;;;;;;;;5042031;28;20032;-62
2022/01/04 19:18:01;;;;;;;24.13;6.10;;;;;;;;;;5038381;28;20032;-62
2022/01/04 19:20:28;;;;;;;12.95;4.80;;;;;;;;;;5048391;28;20079;-62
2022/01/04 19:22:54;;;;;;;17.58;4.95;;;;;;;;;;5044783;28;20115;-62
2022/01/04 19:25:21;;;;;;;23.33;4.93;;;;;;;;;;5048083;28;20388;-62
2022/01/04 19:27:47;;;;;;;17.05;4.88;;;;;;;;;;5047335;28;20512;-62
2022/01/04 19:30:16;;;;;;;17.17;4.40;;;;;;;;;;5051527;28;20032;-62
2022/01/04 19:37:53;;;;;;;17.50;4.95;;;;;;;;;;5040925;28;21256;-63
2022/01/04 19:40:19;;;;;;;22.65;6.10;;;;;;;;;;5047845;28;20025;-63
2022/01/04 19:42:45;;;;;;;23.52;10.00;;;;;;;;;;5051286;28;20559;-63
2022/01/04 19:45:12;;;;;;;27.67;9.85;;;;;;;;;;5048079;28;20021;-63
2022/01/04 19:47:38;;;;;;;37.25;13.73;;;;;;;;;;5041796;28;20022;-64
2022/01/04 19:50:05;;;;;;;38.28;13.52;;;;;;;;;;5053600;28;20052;-64
2022/01/04 19:52:31;;;;;;;35.90;14.18;;;;;;;;;;5039374;28;20028;-63
2022/01/04 19:54:57;;;;;;;31.05;9.85;;;;;;;;;;5048343;28;20029;-65
2022/01/04 19:57:23;;;;;;;24.20;7.47;;;;;;;;;;5040945;28;20111;-64
2022/01/04 19:59:49;;;;;;;39.10;8.98;;;;;;;;;;5033160;28;20080;-64
2022/01/04 20:02:15;;;;;;;26.35;9.55;;;;;;;;;;5039575;28;20030;-64
2022/01/04 20:04:44;;;;;;;26.15;10.93;;;;;;;;;;5046143;28;20116;-64
2022/01/04 20:07:10;;;;;;;23.60;11.25;;;;;;;;;;5041661;28;20029;-61
2022/01/04 20:09:37;;;;;;;30.38;11.70;;;;;;;;;;5040297;28;20025;-63
2022/01/04 20:12:03;;;;;;;29.23;11.68;;;;;;;;;;5034134;28;20094;-63
2022/01/04 20:14:29;;;;;;;46.95;22.17;;;;;;;;;;5062469;28;20075;-62
2022/01/04 20:16:55;;;;;;;58.97;30.17;;;;;;;;;;5038536;28;20025;-63
2022/01/04 20:19:21;;;;;;;64.15;31.52;;;;;;;;;;5052581;28;20060;-63
2022/01/04 20:21:47;;;;;;;57.67;29.75;;;;;;;;;;5041732;28;20025;-62
2022/01/04 20:24:14;;;;;;;50.33;22.85;;;;;;;;;;5037885;28;20044;-63
2022/01/04 20:26:40;;;;;;;34.05;14.95;;;;;;;;;;5044956;28;20379;-63
2022/01/04 20:29:06;;;;;;;30.75;12.10;;;;;;;;;;5027415;28;20033;-63
2022/01/04 20:31:34;;;;;;;23.63;10.02;;;;;;;;;;5036160;28;20056;-63
2022/01/04 20:34:00;;;;;;;37.65;14.23;;;;;;;;;;5047233;28;20043;-62
2022/01/04 20:36:26;;;;;;;23.60;9.55;;;;;;;;;;5048925;28;20063;-62
2022/01/04 20:38:52;;;;;;;21.23;8.80;;;;;;;;;;5049663;28;20455;-63
2022/01/04 20:41:18;;;;;;;36.10;9.27;;;;;;;;;;5047700;28;20032;-63
2022/01/04 20:43:44;;;;;;;21.48;8.38;;;;;;;;;;5053283;28;20104;-63
2022/01/04 20:46:10;;;;;;;26.27;9.23;;;;;;;;;;5045532;28;20029;-64
2022/01/04 20:48:36;;;;;;;21.38;10.85;;;;;;;;;;5037589;28;20064;-63
2022/01/04 20:51:03;;;;;;;22.75;10.85;;;;;;;;;;5032981;28;20037;-66
2022/01/04 20:53:29;;;;;;;18.40;9.27;;;;;;;;;;5030346;28;20567;-65
2022/01/04 20:55:56;;;;;;;26.08;10.27;;;;;;;;;;5045295;28;20021;-74
2022/01/04 20:58:22;;;;;;;29.35;11.77;;;;;;;;;;5037376;28;20508;-73
2022/01/04 21:00:49;;;;;;;18.98;8.55;;;;;;;;;;5045282;28;20033;-72
2022/01/04 21:03:15;;;;;;;28.17;8.93;;;;;;;;;;5038141;28;20029;-73
2022/01/04 21:05:42;;;;;;;31.90;10.20;;;;;;;;;;5036915;28;20483;-72
2022/01/04 21:08:09;;;;;;;13.77;5.88;;;;;;;;;;5048586;28;20028;-72
2022/01/04 21:10:35;;;;;;;15.57;6.47;;;;;;;;;;5048875;28;20479;-73
2022/01/04 21:13:01;;;;;;;14.30;5.93;;;;;;;;;;5047040;28;20032;-74
2022/01/04 21:15:27;;;;;;;22.73;7.10;;;;;;;;;;5048154;28;20044;-73
2022/01/04 21:17:53;;;;;;;20.65;6.97;;;;;;;;;;5047408;28;20496;-75
2022/01/04 21:20:20;;;;;;;18.42;6.15;;;;;;;;;;5046261;28;20368;-72
2022/01/04 21:22:46;;;;;;;13.85;5.97;;;;;;;;;;5035317;28;20495;-73
2022/01/04 21:25:12;;;;;;;12.07;6.07;;;;;;;;;;5045267;28;20097;-72
2022/01/04 21:27:38;;;;;;;15.45;6.43;;;;;;;;;;5038192;28;20025;-72
2022/01/04 21:30:08;;;;;;;12.77;6.43;;;;;;;;;;5043623;28;20163;-71
2022/01/04 21:32:34;;;;;;;17.30;4.32;;;;;;;;;;5042725;28;20021;-72
2022/01/04 21:35:00;;;;;;;8.75;3.58;;;;;;;;;;5041972;28;20509;-71
2022/01/04 21:37:26;;;;;;;15.73;3.58;;;;;;;;;;5035751;28;20033;-71
2022/01/04 21:39:53;;;;;;;11.60;3.60;;;;;;;;;;5038975;28;20037;-71
2022/01/04 21:42:19;;;;;;;15.65;4.15;;;;;;;;;;5048482;28;20553;-70
